sensor_id;sensor_type;location;lat;lon;timestamp;P1;durP1;ratioP1;P2;durP2;ratioP2
1414;SDS011;702;49.466;11.086;2022-12-29T00:01:39;2.47;;;2.20;;
1414;SDS011;702;49.466;11.086;2022-12-29T00:04:09;2.93;;;2.30;;
1414;SDS011;702;49.466;11.086;2022-12-29T00:06:39;2.70;;;1.93;;
1414;SDS011;702;49.466;11.086;2022-12-29T00:09:08;2.70;;;1.97;;
1414;SDS011;702;49.466;11.086;2022-12-29T00:11:36;2.67;;;2.00;;
1414;SDS011;702;49.466;11.086;2022-12-29T00:14:04;2.90;;;1.90;;
1414;SDS011;702;49.466;11.086;2022-12-29T00:16:49;2.00;;;1.80;;
1414;SDS011;702;49.466;11.086;2022-12-29T00:19:17;3.00;;;2.13;;
1414;SDS011;702;49.466;11.086;2022-12-29T00:22:03;2.30;;;2.03;;
1414;SDS011;702;49.466;11.086;2022-12-29T00:24:47;3.20;;;2.60;;
1414;SDS011;702;49.466;11.086;2022-12-29T00:27:32;2.43;;;2.20;;
1414;SDS011;702;49.466;11.086;2022-12-29T00:30:18;2.77;;;2.30;;
1414;SDS011;702;49.466;11.086;2022-12-29T00:33:20;2.60;;;2.00;;
1414;SDS011;702;49.466;11.086;2022-12-29T00:36:12;1.73;;;1.60;;
1414;SDS011;702;49.466;11.086;2022-12-29T00:38:44;2.47;;;1.80;;
1414;SDS011;702;49.466;11.086;2022-12-29T00:41:33;2.60;;;1.90;;
1414;SDS011;702;49.466;11.086;2022-12-29T00:44:18;2.77;;;2.17;;
1414;SDS011;702;49.466;11.086;2022-12-29T00:46:46;2.43;;;1.83;;
1414;SDS011;702;49.466;11.086;2022-12-29T00:49:13;2.80;;;1.80;;
1414;SDS011;702;49.466;11.086;2022-12-29T00:51:59;4.60;;;2.20;;
1414;SDS011;702;49.466;11.086;2022-12-29T00:54:28;3.40;;;2.20;;
1414;SDS011;702;49.466;11.086;2022-12-29T00:56:57;3.23;;;1.80;;
1414;SDS011;702;49.466;11.086;2022-12-29T00:59:25;2.03;;;1.83;;
1414;SDS011;702;49.466;11.086;2022-12-29T01:01:53;2.10;;;1.90;;
1414;SDS011;702;49.466;11.086;2022-12-29T01:04:21;3.03;;;2.60;;
1414;SDS011;702;49.466;11.086;2022-12-29T01:06:51;2.50;;;1.90;;
1414;SDS011;702;49.466;11.086;2022-12-29T01:09:20;3.10;;;2.10;;
1414;SDS011;702;49.466;11.086;2022-12-29T01:12:05;4.00;;;2.93;;
1414;SDS011;702;49.466;11.086;2022-12-29T01:14:34;2.20;;;2.00;;
1414;SDS011;702;49.466;11.086;2022-12-29T01:17:01;2.20;;;1.83;;
1414;SDS011;702;49.466;11.086;2022-12-29T01:19:29;1.77;;;1.67;;
1414;SDS011;702;49.466;11.086;2022-12-29T01:21:57;2.67;;;2.17;;
1414;SDS011;702;49.466;11.086;2022-12-29T01:24:26;2.60;;;1.93;;
1414;SDS011;702;49.466;11.086;2022-12-29T01:26:53;2.13;;;1.83;;
1414;SDS011;702;49.466;11.086;2022-12-29T01:29:20;1.63;;;1.53;;
1414;SDS011;702;49.466;11.086;2022-12-29T01:31:48;2.03;;;1.73;;
1414;SDS011;702;49.466;11.086;2022-12-29T01:34:15;4.43;;;1.93;;
1414;SDS011;702;49.466;11.086;2022-12-29T01:36:43;2.33;;;1.90;;
1414;SDS011;702;49.466;11.086;2022-12-29T01:39:10;2.60;;;2.03;;
1414;SDS011;702;49.466;11.086;2022-12-29T01:41:38;2.40;;;2.03;;
1414;SDS011;702;49.466;11.086;2022-12-29T01:47:16;2.57;;;1.93;;
1414;SDS011;702;49.466;11.086;2022-12-29T01:49:52;2.10;;;1.90;;
1414;SDS011;702;49.466;11.086;2022-12-29T01:52:22;2.43;;;1.87;;
1414;SDS011;702;49.466;11.086;2022-12-29T01:54:53;2.23;;;1.87;;
1414;SDS011;702;49.466;11.086;2022-12-29T01:57:25;3.30;;;2.00;;
1414;SDS011;702;49.466;11.086;2022-12-29T01:59:58;1.93;;;1.70;;
1414;SDS011;702;49.466;11.086;2022-12-29T02:02:29;2.57;;;2.37;;
1414;SDS011;702;49.466;11.086;2022-12-29T02:04:57;3.57;;;2.10;;
1414;SDS011;702;49.466;11.086;2022-12-29T02:07:29;2.40;;;1.77;;
1414;SDS011;702;49.466;11.086;2022-12-29T02:09:57;2.90;;;2.20;;
1414;SDS011;702;49.466;11.086;2022-12-29T02:12:27;3.17;;;2.23;;
1414;SDS011;702;49.466;11.086;2022-12-29T02:14:55;3.57;;;2.20;;
1414;SDS011;702;49.466;11.086;2022-12-29T02:17:29;2.93;;;1.90;;
1414;SDS011;702;49.466;11.086;2022-12-29T02:20:25;2.53;;;2.07;;
1414;SDS011;702;49.466;11.086;2022-12-29T02:23:49;2.10;;;1.90;;
1414;SDS011;702;49.466;11.086;2022-12-29T02:27:08;2.00;;;1.80;;
1414;SDS011;702;49.466;11.086;2022-12-29T02:30:15;2.70;;;2.20;;
1414;SDS011;702;49.466;11.086;2022-12-29T02:33:08;2.33;;;2.00;;
1414;SDS011;702;49.466;11.086;2022-12-29T02:35:50;2.53;;;2.07;;
1414;SDS011;702;49.466;11.086;2022-12-29T02:38:27;3.50;;;1.60;;
1414;SDS011;702;49.466;11.086;2022-12-29T02:41:07;5.23;;;2.40;;
1414;SDS011;702;49.466;11.086;2022-12-29T02:43:44;2.13;;;1.80;;
1414;SDS011;702;49.466;11.086;2022-12-29T02:46:19;3.77;;;2.30;;
1414;SDS011;702;49.466;11.086;2022-12-29T02:48:55;2.70;;;2.00;;
1414;SDS011;702;49.466;11.086;2022-12-29T02:51:33;2.00;;;1.80;;
1414;SDS011;702;49.466;11.086;2022-12-29T02:54:06;2.13;;;1.93;;
1414;SDS011;702;49.466;11.086;2022-12-29T02:56:51;3.60;;;2.10;;
1414;SDS011;702;49.466;11.086;2022-12-29T02:59:18;2.80;;;2.00;;
1414;SDS011;702;49.466;11.086;2022-12-29T03:01:55;2.40;;;2.20;;
1414;SDS011;702;49.466;11.086;2022-12-29T03:04:47;2.20;;;2.00;;
1414;SDS011;702;49.466;11.086;2022-12-29T03:08:06;2.90;;;2.23;;
1414;SDS011;702;49.466;11.086;2022-12-29T03:10:47;1.80;;;1.70;;
1414;SDS011;702;49.466;11.086;2022-12-29T03:13:23;2.73;;;1.77;;
1414;SDS011;702;49.466;11.086;2022-12-29T03:16:18;2.90;;;2.23;;
1414;SDS011;702;49.466;11.086;2022-12-29T03:18:53;3.30;;;1.90;;
1414;SDS011;702;49.466;11.086;2022-12-29T03:21:26;2.23;;;1.80;;
1414;SDS011;702;49.466;11.086;2022-12-29T03:24:18;3.40;;;2.00;;
1414;SDS011;702;49.466;11.086;2022-12-29T03:26:52;2.17;;;1.97;;
1414;SDS011;702;49.466;11.086;2022-12-29T03:29:21;4.43;;;2.10;;
1414;SDS011;702;49.466;11.086;2022-12-29T03:31:49;2.10;;;1.70;;
1414;SDS011;702;49.466;11.086;2022-12-29T03:34:20;2.00;;;1.90;;
1414;SDS011;702;49.466;11.086;2022-12-29T03:36:50;2.20;;;2.00;;
1414;SDS011;702;49.466;11.086;2022-12-29T03:39:22;4.83;;;2.07;;
1414;SDS011;702;49.466;11.086;2022-12-29T03:41:51;2.47;;;1.70;;
1414;SDS011;702;49.466;11.086;2022-12-29T03:44:30;2.80;;;2.37;;
1414;SDS011;702;49.466;11.086;2022-12-29T03:46:59;2.30;;;2.10;;
1414;SDS011;702;49.466;11.086;2022-12-29T03:49:28;2.97;;;1.97;;
1414;SDS011;702;49.466;11.086;2022-12-29T03:51:55;2.50;;;2.30;;
1414;SDS011;702;49.466;11.086;2022-12-29T03:54:23;2.47;;;1.73;;
1414;SDS011;702;49.466;11.086;2022-12-29T03:56:50;2.30;;;2.10;;
1414;SDS011;702;49.466;11.086;2022-12-29T03:59:17;2.47;;;2.10;;
1414;SDS011;702;49.466;11.086;2022-12-29T04:01:44;2.47;;;2.10;;
1414;SDS011;702;49.466;11.086;2022-12-29T04:04:12;2.37;;;1.90;;
1414;SDS011;702;49.466;11.086;2022-12-29T04:06:40;2.70;;;1.70;;
1414;SDS011;702;49.466;11.086;2022-12-29T04:09:09;2.97;;;2.07;;
1414;SDS011;702;49.466;11.086;2022-12-29T04:11:36;2.53;;;2.03;;
1414;SDS011;702;49.466;11.086;2022-12-29T04:14:03;2.27;;;2.07;;
1414;SDS011;702;49.466;11.086;2022-12-29T04:16:30;2.20;;;2.00;;
1414;SDS011;702;49.466;11.086;2022-12-29T04:19:01;3.03;;;1.40;;
1414;SDS011;702;49.466;11.086;2022-12-29T04:21:28;2.23;;;2.03;;
1414;SDS011;702;49.466;11.086;2022-12-29T04:23:56;4.40;;;2.00;;
1414;SDS011;702;49.466;11.086;2022-12-29T04:26:24;1.60;;;1.50;;
1414;SDS011;702;49.466;11.086;2022-12-29T04:28:51;2.60;;;1.90;;
1414;SDS011;702;49.466;11.086;2022-12-29T04:31:18;3.17;;;2.10;;
1414;SDS011;702;49.466;11.086;2022-12-29T04:33:45;3.67;;;1.90;;
1414;SDS011;702;49.466;11.086;2022-12-29T04:36:12;3.80;;;1.80;;
1414;SDS011;702;49.466;11.086;2022-12-29T04:38:40;2.20;;;2.03;;
1414;SDS011;702;49.466;11.086;2022-12-29T04:41:08;1.73;;;1.63;;
1414;SDS011;702;49.466;11.086;2022-12-29T04:43:35;2.07;;;1.80;;
1414;SDS011;702;49.466;11.086;2022-12-29T04:46:02;1.70;;;1.57;;
1414;SDS011;702;49.466;11.086;2022-12-29T04:48:29;2.63;;;2.00;;
1414;SDS011;702;49.466;11.086;2022-12-29T04:50:57;2.10;;;1.67;;
1414;SDS011;702;49.466;11.086;2022-12-29T04:53:24;3.53;;;1.80;;
1414;SDS011;702;49.466;11.086;2022-12-29T04:55:51;2.10;;;1.70;;
1414;SDS011;702;49.466;11.086;2022-12-29T04:58:20;2.50;;;2.03;;
1414;SDS011;702;49.466;11.086;2022-12-29T05:00:48;2.50;;;1.70;;
1414;SDS011;702;49.466;11.086;2022-12-29T05:03:16;2.73;;;2.20;;
1414;SDS011;702;49.466;11.086;2022-12-29T05:05:43;2.10;;;1.90;;
1414;SDS011;702;49.466;11.086;2022-12-29T05:08:11;2.33;;;1.80;;
1414;SDS011;702;49.466;11.086;2022-12-29T05:10:38;3.00;;;2.00;;
1414;SDS011;702;49.466;11.086;2022-12-29T05:13:05;2.67;;;2.40;;
1414;SDS011;702;49.466;11.086;2022-12-29T05:15:34;2.40;;;2.20;;
1414;SDS011;702;49.466;11.086;2022-12-29T05:18:01;4.30;;;1.73;;
1414;SDS011;702;49.466;11.086;2022-12-29T05:20:29;2.20;;;1.77;;
1414;SDS011;702;49.466;11.086;2022-12-29T05:22:56;2.07;;;1.70;;
1414;SDS011;702;49.466;11.086;2022-12-29T05:25:23;3.10;;;2.30;;
1414;SDS011;702;49.466;11.086;2022-12-29T05:27:50;1.83;;;1.60;;
1414;SDS011;702;49.466;11.086;2022-12-29T05:30:18;3.00;;;1.77;;
1414;SDS011;702;49.466;11.086;2022-12-29T05:32:46;3.37;;;1.73;;
1414;SDS011;702;49.466;11.086;2022-12-29T05:35:14;2.10;;;1.90;;
1414;SDS011;702;49.466;11.086;2022-12-29T05:37:41;4.10;;;2.07;;
1414;SDS011;702;49.466;11.086;2022-12-29T05:40:08;2.30;;;2.10;;
1414;SDS011;702;49.466;11.086;2022-12-29T05:42:37;3.40;;;2.17;;
1414;SDS011;702;49.466;11.086;2022-12-29T05:45:04;3.10;;;2.20;;
1414;SDS011;702;49.466;11.086;2022-12-29T05:47:33;2.40;;;1.80;;
1414;SDS011;702;49.466;11.086;2022-12-29T05:50:02;5.37;;;2.37;;
1414;SDS011;702;49.466;11.086;2022-12-29T05:52:30;4.17;;;1.87;;
1414;SDS011;702;49.466;11.086;2022-12-29T05:54:57;2.70;;;2.00;;
1414;SDS011;702;49.466;11.086;2022-12-29T05:57:24;3.47;;;1.80;;
1414;SDS011;702;49.466;11.086;2022-12-29T05:59:52;2.80;;;1.93;;
1414;SDS011;702;49.466;11.086;2022-12-29T06:02:19;3.23;;;1.97;;
1414;SDS011;702;49.466;11.086;2022-12-29T06:04:46;2.33;;;2.03;;
1414;SDS011;702;49.466;11.086;2022-12-29T06:07:14;2.00;;;1.80;;
1414;SDS011;702;49.466;11.086;2022-12-29T06:09:41;5.40;;;2.17;;
1414;SDS011;702;49.466;11.086;2022-12-29T06:12:09;2.20;;;1.67;;
1414;SDS011;702;49.466;11.086;2022-12-29T06:14:36;2.47;;;1.70;;
1414;SDS011;702;49.466;11.086;2022-12-29T06:17:03;2.23;;;1.90;;
1414;SDS011;702;49.466;11.086;2022-12-29T06:19:30;3.90;;;2.00;;
1414;SDS011;702;49.466;11.086;2022-12-29T06:21:58;1.70;;;1.60;;
1414;SDS011;702;49.466;11.086;2022-12-29T06:24:26;3.90;;;1.90;;
1414;SDS011;702;49.466;11.086;2022-12-29T06:26:53;2.10;;;1.90;;
1414;SDS011;702;49.466;11.086;2022-12-29T06:29:21;2.63;;;2.43;;
1414;SDS011;702;49.466;11.086;2022-12-29T06:31:48;1.70;;;1.57;;
1414;SDS011;702;49.466;11.086;2022-12-29T06:34:16;2.33;;;1.83;;
1414;SDS011;702;49.466;11.086;2022-12-29T06:36:45;3.00;;;1.70;;
1414;SDS011;702;49.466;11.086;2022-12-29T06:39:13;2.70;;;1.93;;
1414;SDS011;702;49.466;11.086;2022-12-29T06:41:41;4.40;;;2.13;;
1414;SDS011;702;49.466;11.086;2022-12-29T06:44:09;2.90;;;1.67;;
1414;SDS011;702;49.466;11.086;2022-12-29T06:46:36;2.93;;;1.80;;
1414;SDS011;702;49.466;11.086;2022-12-29T06:49:03;2.90;;;2.00;;
1414;SDS011;702;49.466;11.086;2022-12-29T06:51:30;4.67;;;2.30;;
1414;SDS011;702;49.466;11.086;2022-12-29T06:53:57;1.97;;;1.70;;
1414;SDS011;702;49.466;11.086;2022-12-29T06:56:25;3.33;;;1.97;;
1414;SDS011;702;49.466;11.086;2022-12-29T06:58:53;2.27;;;1.80;;
1414;SDS011;702;49.466;11.086;2022-12-29T07:01:20;3.43;;;1.80;;
1414;SDS011;702;49.466;11.086;2022-12-29T07:03:47;2.53;;;1.90;;
1414;SDS011;702;49.466;11.086;2022-12-29T07:06:14;2.40;;;2.20;;
1414;SDS011;702;49.466;11.086;2022-12-29T07:08:42;3.23;;;1.70;;
1414;SDS011;702;49.466;11.086;2022-12-29T07:11:09;4.80;;;1.80;;
1414;SDS011;702;49.466;11.086;2022-12-29T07:13:36;4.77;;;1.90;;
1414;SDS011;702;49.466;11.086;2022-12-29T07:16:08;1.87;;;1.60;;
1414;SDS011;702;49.466;11.086;2022-12-29T07:18:36;2.57;;;2.00;;
1414;SDS011;702;49.466;11.086;2022-12-29T07:21:04;3.23;;;1.77;;
1414;SDS011;702;49.466;11.086;2022-12-29T07:23:31;6.33;;;2.10;;
1414;SDS011;702;49.466;11.086;2022-12-29T07:25:59;2.67;;;2.33;;
1414;SDS011;702;49.466;11.086;2022-12-29T07:28:27;2.70;;;1.40;;
1414;SDS011;702;49.466;11.086;2022-12-29T07:30:54;2.10;;;1.80;;
1414;SDS011;702;49.466;11.086;2022-12-29T07:33:23;2.60;;;2.20;;
1414;SDS011;702;49.466;11.086;2022-12-29T07:35:50;4.50;;;2.60;;
1414;SDS011;702;49.466;11.086;2022-12-29T07:38:17;6.20;;;2.20;;
1414;SDS011;702;49.466;11.086;2022-12-29T07:40:44;3.67;;;2.07;;
1414;SDS011;702;49.466;11.086;2022-12-29T07:43:12;3.43;;;2.03;;
1414;SDS011;702;49.466;11.086;2022-12-29T07:45:39;7.20;;;2.10;;
1414;SDS011;702;49.466;11.086;2022-12-29T07:48:07;2.37;;;2.10;;
1414;SDS011;702;49.466;11.086;2022-12-29T07:50:35;4.60;;;1.77;;
1414;SDS011;702;49.466;11.086;2022-12-29T07:53:03;2.10;;;1.87;;
1414;SDS011;702;49.466;11.086;2022-12-29T07:55:30;4.47;;;1.87;;
1414;SDS011;702;49.466;11.086;2022-12-29T07:57:57;2.50;;;1.80;;
1414;SDS011;702;49.466;11.086;2022-12-29T08:00:25;3.97;;;2.30;;
1414;SDS011;702;49.466;11.086;2022-12-29T08:02:52;4.97;;;2.07;;
1414;SDS011;702;49.466;11.086;2022-12-29T08:05:19;2.80;;;2.37;;
1414;SDS011;702;49.466;11.086;2022-12-29T08:07:48;1.93;;;1.80;;
1414;SDS011;702;49.466;11.086;2022-12-29T08:10:15;3.03;;;2.13;;
1414;SDS011;702;49.466;11.086;2022-12-29T08:12:43;2.50;;;2.07;;
1414;SDS011;702;49.466;11.086;2022-12-29T08:15:11;5.43;;;2.90;;
1414;SDS011;702;49.466;11.086;2022-12-29T08:17:38;2.70;;;1.90;;
1414;SDS011;702;49.466;11.086;2022-12-29T08:20:06;2.40;;;1.73;;
1414;SDS011;702;49.466;11.086;2022-12-29T08:22:34;5.47;;;2.37;;
1414;SDS011;702;49.466;11.086;2022-12-29T08:25:03;2.03;;;1.87;;
1414;SDS011;702;49.466;11.086;2022-12-29T08:27:31;3.30;;;1.80;;
1414;SDS011;702;49.466;11.086;2022-12-29T08:29:58;3.47;;;2.03;;
1414;SDS011;702;49.466;11.086;2022-12-29T08:32:25;4.73;;;1.93;;
1414;SDS011;702;49.466;11.086;2022-12-29T08:34:53;2.30;;;1.90;;
1414;SDS011;702;49.466;11.086;2022-12-29T08:37:21;1.87;;;1.57;;
1414;SDS011;702;49.466;11.086;2022-12-29T08:39:48;4.03;;;1.43;;
1414;SDS011;702;49.466;11.086;2022-12-29T08:42:17;2.00;;;1.33;;
1414;SDS011;702;49.466;11.086;2022-12-29T08:44:44;3.67;;;2.00;;
1414;SDS011;702;49.466;11.086;2022-12-29T08:47:11;3.80;;;1.80;;
1414;SDS011;702;49.466;11.086;2022-12-29T08:49:38;3.73;;;1.80;;
1414;SDS011;702;49.466;11.086;2022-12-29T08:52:05;4.03;;;1.70;;
1414;SDS011;702;49.466;11.086;2022-12-29T08:54:33;1.93;;;1.83;;
1414;SDS011;702;49.466;11.086;2022-12-29T08:57:01;3.77;;;1.80;;
1414;SDS011;702;49.466;11.086;2022-12-29T08:59:29;3.80;;;2.30;;
1414;SDS011;702;49.466;11.086;2022-12-29T09:01:56;2.73;;;2.10;;
1414;SDS011;702;49.466;11.086;2022-12-29T09:04:24;1.80;;;1.60;;
1414;SDS011;702;49.466;11.086;2022-12-29T09:06:52;3.47;;;2.40;;
1414;SDS011;702;49.466;11.086;2022-12-29T09:09:19;4.40;;;2.60;;
1414;SDS011;702;49.466;11.086;2022-12-29T09:11:47;2.73;;;2.23;;
1414;SDS011;702;49.466;11.086;2022-12-29T09:14:14;2.30;;;1.60;;
1414;SDS011;702;49.466;11.086;2022-12-29T09:16:43;3.50;;;2.10;;
1414;SDS011;702;49.466;11.086;2022-12-29T09:19:28;2.43;;;1.80;;
1414;SDS011;702;49.466;11.086;2022-12-29T09:21:55;2.20;;;2.00;;
1414;SDS011;702;49.466;11.086;2022-12-29T09:24:22;1.97;;;1.80;;
1414;SDS011;702;49.466;11.086;2022-12-29T09:26:49;2.23;;;1.93;;
1414;SDS011;702;49.466;11.086;2022-12-29T09:29:16;2.47;;;1.80;;
1414;SDS011;702;49.466;11.086;2022-12-29T09:31:45;2.53;;;1.70;;
1414;SDS011;702;49.466;11.086;2022-12-29T09:34:12;3.47;;;2.10;;
1414;SDS011;702;49.466;11.086;2022-12-29T09:36:39;2.47;;;2.27;;
1414;SDS011;702;49.466;11.086;2022-12-29T09:39:07;2.67;;;1.97;;
1414;SDS011;702;49.466;11.086;2022-12-29T09:41:35;7.00;;;2.40;;
1414;SDS011;702;49.466;11.086;2022-12-29T09:44:07;2.43;;;1.83;;
1414;SDS011;702;49.466;11.086;2022-12-29T09:46:43;2.90;;;1.50;;
1414;SDS011;702;49.466;11.086;2022-12-29T09:49:19;2.10;;;1.90;;
1414;SDS011;702;49.466;11.086;2022-12-29T09:51:54;3.73;;;2.07;;
1414;SDS011;702;49.466;11.086;2022-12-29T09:57:16;2.17;;;1.97;;
1414;SDS011;702;49.466;11.086;2022-12-29T09:59:48;1.90;;;1.70;;
1414;SDS011;702;49.466;11.086;2022-12-29T10:02:27;3.20;;;1.97;;
1414;SDS011;702;49.466;11.086;2022-12-29T10:05:01;5.03;;;2.00;;
1414;SDS011;702;49.466;11.086;2022-12-29T10:07:34;4.47;;;2.30;;
1414;SDS011;702;49.466;11.086;2022-12-29T10:10:12;2.20;;;2.00;;
1414;SDS011;702;49.466;11.086;2022-12-29T10:12:57;5.80;;;4.40;;
1414;SDS011;702;49.466;11.086;2022-12-29T10:15:39;3.57;;;2.20;;
1414;SDS011;702;49.466;11.086;2022-12-29T10:18:20;4.83;;;2.43;;
1414;SDS011;702;49.466;11.086;2022-12-29T10:21:17;3.70;;;2.47;;
1414;SDS011;702;49.466;11.086;2022-12-29T10:23:55;2.70;;;2.13;;
1414;SDS011;702;49.466;11.086;2022-12-29T10:26:23;3.53;;;1.90;;
1414;SDS011;702;49.466;11.086;2022-12-29T10:28:56;6.03;;;2.30;;
1414;SDS011;702;49.466;11.086;2022-12-29T10:31:35;3.93;;;2.40;;
1414;SDS011;702;49.466;11.086;2022-12-29T10:34:10;1.97;;;1.60;;
1414;SDS011;702;49.466;11.086;2022-12-29T10:36:46;3.47;;;2.50;;
1414;SDS011;702;49.466;11.086;2022-12-29T10:39:16;3.80;;;2.80;;
1414;SDS011;702;49.466;11.086;2022-12-29T10:41:51;6.37;;;2.70;;
1414;SDS011;702;49.466;11.086;2022-12-29T10:44:23;3.60;;;2.03;;
1414;SDS011;702;49.466;11.086;2022-12-29T10:46:57;3.40;;;2.53;;
1414;SDS011;702;49.466;11.086;2022-12-29T10:49:28;3.33;;;3.03;;
1414;SDS011;702;49.466;11.086;2022-12-29T10:51:56;5.43;;;2.70;;
1414;SDS011;702;49.466;11.086;2022-12-29T10:54:27;4.67;;;2.97;;
1414;SDS011;702;49.466;11.086;2022-12-29T10:57:00;7.83;;;2.50;;
1414;SDS011;702;49.466;11.086;2022-12-29T10:59:33;3.20;;;2.20;;
1414;SDS011;702;49.466;11.086;2022-12-29T11:02:05;2.50;;;2.30;;
1414;SDS011;702;49.466;11.086;2022-12-29T11:04:53;5.80;;;3.20;;
1414;SDS011;702;49.466;11.086;2022-12-29T11:07:27;6.70;;;2.67;;
1414;SDS011;702;49.466;11.086;2022-12-29T11:09:57;6.43;;;2.53;;
1414;SDS011;702;49.466;11.086;2022-12-29T11:12:55;2.57;;;2.17;;
1414;SDS011;702;49.466;11.086;2022-12-29T11:15:25;4.70;;;2.50;;
1414;SDS011;702;49.466;11.086;2022-12-29T11:17:53;3.13;;;2.37;;
1414;SDS011;702;49.466;11.086;2022-12-29T11:20:30;3.13;;;2.63;;
1414;SDS011;702;49.466;11.086;2022-12-29T11:23:00;4.57;;;2.47;;
1414;SDS011;702;49.466;11.086;2022-12-29T11:25:30;3.60;;;2.00;;
1414;SDS011;702;49.466;11.086;2022-12-29T11:27:59;5.20;;;2.17;;
1414;SDS011;702;49.466;11.086;2022-12-29T11:30:30;2.43;;;2.00;;
1414;SDS011;702;49.466;11.086;2022-12-29T11:32:58;5.63;;;2.27;;
1414;SDS011;702;49.466;11.086;2022-12-29T11:35:31;3.30;;;1.80;;
1414;SDS011;702;49.466;11.086;2022-12-29T11:38:03;2.90;;;2.33;;
1414;SDS011;702;49.466;11.086;2022-12-29T11:40:31;5.90;;;2.50;;
1414;SDS011;702;49.466;11.086;2022-12-29T11:43:04;4.40;;;2.53;;
1414;SDS011;702;49.466;11.086;2022-12-29T11:45:33;3.83;;;2.93;;
1414;SDS011;702;49.466;11.086;2022-12-29T11:48:05;3.30;;;2.60;;
1414;SDS011;702;49.466;11.086;2022-12-29T11:50:37;3.20;;;2.43;;
1414;SDS011;702;49.466;11.086;2022-12-29T11:53:08;4.83;;;2.50;;
1414;SDS011;702;49.466;11.086;2022-12-29T11:55:50;3.33;;;2.10;;
1414;SDS011;702;49.466;11.086;2022-12-29T11:58:19;3.37;;;2.97;;
1414;SDS011;702;49.466;11.086;2022-12-29T12:00:46;5.37;;;3.00;;
1414;SDS011;702;49.466;11.086;2022-12-29T12:03:17;3.13;;;2.57;;
1414;SDS011;702;49.466;11.086;2022-12-29T12:05:48;3.53;;;2.33;;
1414;SDS011;702;49.466;11.086;2022-12-29T12:08:22;5.60;;;2.30;;
1414;SDS011;702;49.466;11.086;2022-12-29T12:11:01;4.07;;;2.37;;
1414;SDS011;702;49.466;11.086;2022-12-29T12:13:37;3.17;;;2.40;;
1414;SDS011;702;49.466;11.086;2022-12-29T12:16:12;10.30;;;2.50;;
1414;SDS011;702;49.466;11.086;2022-12-29T12:18:45;6.10;;;2.50;;
1414;SDS011;702;49.466;11.086;2022-12-29T12:21:20;4.43;;;2.53;;
1414;SDS011;702;49.466;11.086;2022-12-29T12:23:58;3.80;;;2.10;;
1414;SDS011;702;49.466;11.086;2022-12-29T12:27:08;6.23;;;2.40;;
1414;SDS011;702;49.466;11.086;2022-12-29T12:29:42;3.27;;;2.53;;
1414;SDS011;702;49.466;11.086;2022-12-29T12:32:17;2.53;;;2.10;;
1414;SDS011;702;49.466;11.086;2022-12-29T12:34:49;2.27;;;2.00;;
1414;SDS011;702;49.466;11.086;2022-12-29T12:37:26;3.90;;;1.70;;
1414;SDS011;702;49.466;11.086;2022-12-29T12:40:15;3.23;;;2.03;;
1414;SDS011;702;49.466;11.086;2022-12-29T12:43:14;2.50;;;1.90;;
1414;SDS011;702;49.466;11.086;2022-12-29T12:46:07;1.43;;;1.20;;
1414;SDS011;702;49.466;11.086;2022-12-29T12:49:07;2.83;;;1.70;;
1414;SDS011;702;49.466;11.086;2022-12-29T12:51:57;2.47;;;1.77;;
1414;SDS011;702;49.466;11.086;2022-12-29T12:54:41;1.50;;;1.40;;
1414;SDS011;702;49.466;11.086;2022-12-29T12:57:27;2.03;;;1.70;;
1414;SDS011;702;49.466;11.086;2022-12-29T13:00:10;6.80;;;2.10;;
1414;SDS011;702;49.466;11.086;2022-12-29T13:02:46;1.73;;;1.57;;
1414;SDS011;702;49.466;11.086;2022-12-29T13:05:47;4.67;;;1.97;;
1414;SDS011;702;49.466;11.086;2022-12-29T13:08:41;6.30;;;1.73;;
1414;SDS011;702;49.466;11.086;2022-12-29T13:11:32;3.33;;;1.97;;
1414;SDS011;702;49.466;11.086;2022-12-29T13:14:27;4.03;;;2.10;;
1414;SDS011;702;49.466;11.086;2022-12-29T13:17:08;5.30;;;2.30;;
1414;SDS011;702;49.466;11.086;2022-12-29T13:19:44;2.43;;;1.90;;
1414;SDS011;702;49.466;11.086;2022-12-29T13:22:20;2.70;;;2.10;;
1414;SDS011;702;49.466;11.086;2022-12-29T13:24:58;2.73;;;1.90;;
1414;SDS011;702;49.466;11.086;2022-12-29T13:27:53;4.40;;;1.77;;
1414;SDS011;702;49.466;11.086;2022-12-29T13:30:28;3.80;;;1.90;;
1414;SDS011;702;49.466;11.086;2022-12-29T13:33:03;3.77;;;2.30;;
1414;SDS011;702;49.466;11.086;2022-12-29T13:35:46;6.20;;;2.30;;
1414;SDS011;702;49.466;11.086;2022-12-29T13:38:22;3.50;;;2.60;;
1414;SDS011;702;49.466;11.086;2022-12-29T13:40:56;3.63;;;2.30;;
1414;SDS011;702;49.466;11.086;2022-12-29T13:43:30;4.10;;;2.60;;
1414;SDS011;702;49.466;11.086;2022-12-29T13:46:02;3.60;;;3.23;;
1414;SDS011;702;49.466;11.086;2022-12-29T13:48:36;2.87;;;2.10;;
1414;SDS011;702;49.466;11.086;2022-12-29T13:51:07;3.87;;;2.10;;
1414;SDS011;702;49.466;11.086;2022-12-29T13:53:37;2.93;;;2.50;;
1414;SDS011;702;49.466;11.086;2022-12-29T13:56:23;3.47;;;2.73;;
1414;SDS011;702;49.466;11.086;2022-12-29T13:59:02;5.90;;;3.07;;
1414;SDS011;702;49.466;11.086;2022-12-29T14:01:39;6.90;;;3.40;;
1414;SDS011;702;49.466;11.086;2022-12-29T14:04:13;6.03;;;2.97;;
1414;SDS011;702;49.466;11.086;2022-12-29T14:06:57;4.40;;;3.03;;
1414;SDS011;702;49.466;11.086;2022-12-29T14:09:35;6.17;;;3.50;;
1414;SDS011;702;49.466;11.086;2022-12-29T14:12:19;4.07;;;3.57;;
1414;SDS011;702;49.466;11.086;2022-12-29T14:15:04;6.23;;;4.10;;
1414;SDS011;702;49.466;11.086;2022-12-29T14:17:42;7.87;;;4.03;;
1414;SDS011;702;49.466;11.086;2022-12-29T14:20:16;5.00;;;4.00;;
1414;SDS011;702;49.466;11.086;2022-12-29T14:22:58;4.87;;;3.73;;
1414;SDS011;702;49.466;11.086;2022-12-29T14:25:51;3.50;;;2.60;;
1414;SDS011;702;49.466;11.086;2022-12-29T14:28:37;5.03;;;2.63;;
1414;SDS011;702;49.466;11.086;2022-12-29T14:31:32;4.27;;;2.70;;
1414;SDS011;702;49.466;11.086;2022-12-29T14:37:20;7.10;;;3.13;;
1414;SDS011;702;49.466;11.086;2022-12-29T14:40:02;4.03;;;2.77;;
1414;SDS011;702;49.466;11.086;2022-12-29T14:42:32;4.20;;;2.70;;
1414;SDS011;702;49.466;11.086;2022-12-29T14:45:02;4.30;;;2.90;;
1414;SDS011;702;49.466;11.086;2022-12-29T14:47:35;6.10;;;3.20;;
1414;SDS011;702;49.466;11.086;2022-12-29T14:50:06;4.47;;;3.83;;
1414;SDS011;702;49.466;11.086;2022-12-29T14:52:42;5.43;;;3.10;;
1414;SDS011;702;49.466;11.086;2022-12-29T14:58:06;5.93;;;3.33;;
1414;SDS011;702;49.466;11.086;2022-12-29T15:00:42;3.33;;;3.03;;
1414;SDS011;702;49.466;11.086;2022-12-29T15:03:14;3.13;;;2.80;;
1414;SDS011;702;49.466;11.086;2022-12-29T15:05:48;4.20;;;2.80;;
1414;SDS011;702;49.466;11.086;2022-12-29T15:08:19;3.93;;;2.70;;
1414;SDS011;702;49.466;11.086;2022-12-29T15:10:51;8.53;;;3.30;;
1414;SDS011;702;49.466;11.086;2022-12-29T15:13:23;4.53;;;3.17;;
1414;SDS011;702;49.466;11.086;2022-12-29T15:15:58;3.47;;;2.87;;
1414;SDS011;702;49.466;11.086;2022-12-29T15:18:28;5.03;;;2.93;;
1414;SDS011;702;49.466;11.086;2022-12-29T15:20:57;5.97;;;3.40;;
1414;SDS011;702;49.466;11.086;2022-12-29T15:23:27;4.13;;;3.27;;
1414;SDS011;702;49.466;11.086;2022-12-29T15:25:57;3.50;;;3.00;;
1414;SDS011;702;49.466;11.086;2022-12-29T15:28:27;3.97;;;2.90;;
1414;SDS011;702;49.466;11.086;2022-12-29T15:31:05;5.03;;;3.80;;
1414;SDS011;702;49.466;11.086;2022-12-29T15:33:40;9.60;;;5.87;;
1414;SDS011;702;49.466;11.086;2022-12-29T15:36:12;7.33;;;4.10;;
1414;SDS011;702;49.466;11.086;2022-12-29T15:38:46;3.77;;;3.40;;
1414;SDS011;702;49.466;11.086;2022-12-29T15:41:18;5.57;;;3.37;;
1414;SDS011;702;49.466;11.086;2022-12-29T15:44:20;4.00;;;3.40;;
1414;SDS011;702;49.466;11.086;2022-12-29T15:46:51;4.87;;;2.67;;
1414;SDS011;702;49.466;11.086;2022-12-29T15:49:20;4.80;;;4.10;;
1414;SDS011;702;49.466;11.086;2022-12-29T15:51:49;5.17;;;3.60;;
1414;SDS011;702;49.466;11.086;2022-12-29T15:54:16;4.43;;;3.47;;
1414;SDS011;702;49.466;11.086;2022-12-29T15:56:47;4.00;;;3.60;;
1414;SDS011;702;49.466;11.086;2022-12-29T15:59:24;8.97;;;3.67;;
1414;SDS011;702;49.466;11.086;2022-12-29T16:01:54;6.57;;;3.87;;
1414;SDS011;702;49.466;11.086;2022-12-29T16:04:25;3.57;;;3.27;;